Meteo Giornale » Osservazioni meteo Italia » Monte Terminillo

ore: 12:55 - Osservazioni Meteo Monte Terminillo
Lat. 42° 28' N Lon. 12° 59' E Alt. 1874 metri s.l.m.

sereno Europe/Rome

0 °C

Sereno

Temp. 24 Ore

-1 °C

7 °C

Est

37 Km/h

Dew point -3 °C

Umidità 80 %

Visibilità  0 Km

Il sole sorge alle ore 06:59

Il sole tramonta alle ore 16:46

Data e Ora Cielo e Fenomeni T °C DP °C Um. % Pres. hPa Vis. km Vento km/h
Oggi h: 12:55 sereno Sereno 0 -3 80 1020 0 E 37
Oggi h: 12:48 sereno Sereno 0 -3 80 1020 0 E 35.2
Oggi h: 12:16 sereno Sereno -0 -2 86 1020 0 E 35.2
Oggi h: 12:08 sereno Sereno -0 -2 86 1020 0 E 38.8
Oggi h: 11:48 sereno Sereno -1 -1 100 1021 0 E 38.8
Oggi h: 11:16 sereno Sereno -1 -1 100 1020 0 E 40.7
Oggi h: 11:14 sereno Sereno -1 -2 92 1020 0 E 44.4
Oggi h: 11:01 sereno Sereno -1 -2 92 1020 0 E 48.1
Oggi h: 10:51 sereno Sereno -1 -2 92 1021 0 E 44.4
Oggi h: 08:56 sereno Sereno -1 -1 100 1020 0 E 38.8
Oggi h: 08:55 sereno Sereno -1 -1 100 1020 0 E 38.8
Oggi h: 07:55 sereno Sereno -0 -0 100 1021 0 E 35.2
Oggi h: 06:55 sereno Sereno 0 0 100 1021 0 E 35.2
Oggi h: 05:55 sereno Sereno 0 0 100 1021 0 E 31.5
Oggi h: 04:55 sereno Sereno 1 1 100 1021 0 E 29.6
Oggi h: 03:55 sereno Sereno 1 0 93 1021 0 E 24
Oggi h: 02:55 sereno Sereno 1 1 100 1021 0 N 16.7
Oggi h: 01:55 sereno Sereno 1 1 100 1022 0 E 22.2
Oggi h: 00:55 sereno Sereno 5 -4 52 1022 0 E 16.7
Ieri h: 23:55 sereno Sereno 6 -14 22 1022 0 E/SE 24
Ieri h: 22:55 sereno Sereno 7 -16 17 1022 0 S/SE 7.4